createdAt,value
2019-03-16T00:01:12.597Z,98185.89
2019-03-16T00:03:42.718Z,98196.61
2019-03-16T00:06:14.858Z,98193.52
2019-03-16T00:08:46.711Z,98162.47
2019-03-16T00:11:18.693Z,98182.36
2019-03-16T00:13:50.478Z,98169.83
2019-03-16T00:16:22.357Z,98176.09
2019-03-16T00:18:54.179Z,98164.03
2019-03-16T00:21:25.987Z,98174.92
2019-03-16T00:23:57.833Z,98164.28
2019-03-16T00:26:29.681Z,98157.07
2019-03-16T00:29:01.597Z,98169.04
2019-03-16T00:31:33.437Z,98171.53
2019-03-16T00:34:05.393Z,98170.23
2019-03-16T00:36:37.560Z,98171.31
2019-03-16T00:39:10.696Z,98173.78
2019-03-16T00:41:42.502Z,98168.00
2019-03-16T00:44:14.368Z,98174.88
2019-03-16T00:46:46.191Z,98177.09
2019-03-16T00:49:18.012Z,98176.05
2019-03-16T00:51:50.092Z,98169.89
2019-03-16T00:54:21.974Z,98155.95
2019-03-16T00:56:53.816Z,98155.48
2019-03-16T00:59:25.664Z,98155.12
2019-03-16T01:01:57.544Z,98151.44
2019-03-16T01:04:29.364Z,98154.38
2019-03-16T01:07:01.462Z,98150.01
2019-03-16T01:09:33.275Z,98149.52
2019-03-16T01:12:05.162Z,98138.19
2019-03-16T01:14:36.961Z,98138.53
2019-03-16T01:17:08.814Z,98137.69
2019-03-16T01:19:40.660Z,98137.09
2019-03-16T01:22:12.840Z,98136.61
2019-03-16T01:24:44.676Z,98149.16
2019-03-16T01:27:16.703Z,98140.53
2019-03-16T01:29:48.749Z,98137.34
2019-03-16T01:32:20.554Z,98136.41
2019-03-16T01:34:52.465Z,98138.55
2019-03-16T01:37:24.486Z,98139.03
2019-03-16T01:39:56.335Z,98144.69
2019-03-16T01:42:28.355Z,98135.23
2019-03-16T01:45:00.478Z,98138.20
2019-03-16T01:47:32.534Z,98137.50
2019-03-16T01:50:04.854Z,98147.89
2019-03-16T01:52:36.640Z,98146.45
2019-03-16T01:55:08.745Z,98140.19
2019-03-16T01:57:40.559Z,98142.66
2019-03-16T02:00:13.068Z,98139.94
2019-03-16T02:02:55.027Z,98137.56
2019-03-16T02:05:18.822Z,98136.94
2019-03-16T02:07:50.915Z,98129.27
2019-03-16T02:10:22.714Z,98130.17
2019-03-16T02:12:54.541Z,98130.38
2019-03-16T02:15:26.343Z,98144.59
2019-03-16T02:17:58.359Z,98132.51
2019-03-16T02:20:30.441Z,98147.88
2019-03-16T02:23:03.839Z,98131.52
2019-03-16T02:25:35.664Z,98121.66
2019-03-16T02:28:07.515Z,98118.20
2019-03-16T02:30:39.432Z,98111.20
2019-03-16T02:33:13.647Z,98111.29
2019-03-16T02:35:44.721Z,98113.89
2019-03-16T02:38:16.836Z,98117.65
2019-03-16T02:40:48.785Z,98116.34
2019-03-16T02:43:21.730Z,98117.07
2019-03-16T02:45:53.567Z,98117.93
2019-03-16T02:48:25.397Z,98127.05
2019-03-16T02:50:57.248Z,98124.44
2019-03-16T02:53:29.505Z,98128.48
2019-03-16T02:56:01.372Z,98121.84
2019-03-16T02:58:33.180Z,98124.56
2019-03-16T03:01:04.994Z,98127.63
2019-03-16T03:03:37.116Z,98099.55
2019-03-16T03:06:08.941Z,98133.77
2019-03-16T03:08:41.220Z,98122.16
2019-03-16T03:11:13.041Z,98116.00
2019-03-16T03:13:44.907Z,98129.24
2019-03-16T03:16:17.646Z,98118.08
2019-03-16T03:18:50.067Z,98113.84
2019-03-16T03:21:22.316Z,98141.22
2019-03-16T03:23:54.510Z,98122.97
2019-03-16T03:26:27.657Z,98131.16
2019-03-16T03:28:59.623Z,98132.10
2019-03-16T03:31:31.508Z,98135.69
2019-03-16T03:34:03.377Z,98137.20
2019-03-16T03:36:35.178Z,98135.36
2019-03-16T03:39:08.946Z,98156.45
2019-03-16T03:41:40.746Z,98151.88
2019-03-16T03:44:12.563Z,98135.84
2019-03-16T03:46:44.510Z,98130.51
2019-03-16T03:49:16.346Z,98141.63
2019-03-16T03:51:48.153Z,98145.42
2019-03-16T03:54:20.370Z,98143.87
2019-03-16T03:56:52.183Z,98149.72
2019-03-16T03:59:24.049Z,98155.72
2019-03-16T04:01:57.029Z,98139.30
2019-03-16T04:04:29.170Z,98164.78
2019-03-16T04:07:00.998Z,98172.60
2019-03-16T04:09:33.122Z,98155.54
2019-03-16T04:12:04.940Z,98169.99
2019-03-16T04:14:36.786Z,98147.23
2019-03-16T04:17:08.649Z,98170.81
2019-03-16T04:19:40.538Z,98190.57
2019-03-16T04:22:12.366Z,98182.18
2019-03-16T04:24:45.601Z,98173.63
2019-03-16T04:27:17.482Z,98188.94
2019-03-16T04:29:49.340Z,98190.33
2019-03-16T04:32:21.152Z,98190.12
2019-03-16T04:34:52.978Z,98208.48
2019-03-16T04:37:25.034Z,98190.94
2019-03-16T04:39:57.158Z,98209.27
2019-03-16T04:42:28.969Z,98222.31
2019-03-16T04:45:01.918Z,98220.20
2019-03-16T04:47:33.734Z,98231.81
2019-03-16T04:50:06.242Z,98243.92
2019-03-16T04:52:39.032Z,98250.30
2019-03-16T04:55:11.144Z,98243.81
2019-03-16T04:57:42.950Z,98292.98
2019-03-16T05:00:15.125Z,98274.03
2019-03-16T05:02:46.936Z,98274.62
2019-03-16T05:05:19.281Z,98287.52
2019-03-16T05:07:51.063Z,98294.97
2019-03-16T05:10:23.147Z,98293.31
2019-03-16T05:12:55.024Z,98302.30
2019-03-16T05:15:26.804Z,98326.37
2019-03-16T05:17:58.697Z,98317.10
2019-03-16T05:20:30.620Z,98334.77
2019-03-16T05:23:02.735Z,98333.21
2019-03-16T05:25:34.992Z,98336.76
2019-03-16T05:28:06.806Z,98357.48
2019-03-16T05:30:38.627Z,98355.70
2019-03-16T05:33:10.530Z,98358.15
2019-03-16T05:35:42.381Z,98365.58
2019-03-16T05:38:14.213Z,98361.78
2019-03-16T05:40:46.424Z,98366.88
2019-03-16T05:43:18.292Z,98376.00
2019-03-16T05:45:50.122Z,98379.42
2019-03-16T05:48:21.996Z,98385.81
2019-03-16T05:50:53.831Z,98392.80
2019-03-16T05:53:25.731Z,98413.26
2019-03-16T05:55:57.683Z,98418.73
2019-03-16T05:58:29.559Z,98420.03
2019-03-16T06:01:01.412Z,98444.77
2019-03-16T06:03:33.198Z,98451.71
2019-03-16T06:06:05.464Z,98460.87
2019-03-16T06:08:37.302Z,98473.78
2019-03-16T06:11:09.468Z,98471.28
2019-03-16T06:13:41.300Z,98474.11
2019-03-16T06:16:13.111Z,98484.31
2019-03-16T06:18:44.994Z,98490.42
2019-03-16T06:21:16.887Z,98490.06
2019-03-16T06:23:48.728Z,98500.84
2019-03-16T06:26:20.548Z,98508.92
2019-03-16T06:28:52.413Z,98508.84
2019-03-16T06:31:24.231Z,98522.94
2019-03-16T06:33:56.085Z,98518.03
2019-03-16T06:36:27.889Z,98522.84
2019-03-16T06:38:59.722Z,98530.16
2019-03-16T06:41:32.163Z,98530.68
2019-03-16T06:44:04.032Z,98528.56
2019-03-16T06:46:35.826Z,98540.27
2019-03-16T06:49:08.863Z,98527.13
2019-03-16T06:51:40.675Z,98543.95
2019-03-16T06:54:12.593Z,98548.97
2019-03-16T06:56:44.569Z,98554.45
2019-03-16T06:59:16.472Z,98568.13
2019-03-16T07:01:48.288Z,98574.30
2019-03-16T07:04:20.183Z,98569.30
2019-03-16T07:06:52.530Z,98580.45
2019-03-16T07:09:24.424Z,98600.95
2019-03-16T07:11:56.609Z,98606.63
2019-03-16T07:14:28.491Z,98623.05
2019-03-16T07:17:02.438Z,98625.02
2019-03-16T07:19:34.073Z,98634.26
2019-03-16T07:22:06.111Z,98649.22
2019-03-16T07:24:37.968Z,98635.43
2019-03-16T07:27:10.022Z,98645.08
2019-03-16T07:29:41.866Z,98643.56
2019-03-16T07:32:13.712Z,98647.89
2019-03-16T07:34:45.622Z,98664.82
2019-03-16T07:37:17.461Z,98665.11
2019-03-16T07:39:49.452Z,98679.44
2019-03-16T07:42:21.515Z,98691.53
2019-03-16T07:44:53.346Z,98698.02
2019-03-16T07:47:25.203Z,98697.65
2019-03-16T07:49:57.051Z,98707.56
2019-03-16T07:52:28.956Z,98709.10
2019-03-16T07:55:00.749Z,98714.82
2019-03-16T07:57:40.054Z,98717.53
2019-03-16T08:00:06.777Z,98719.59
2019-03-16T08:02:38.665Z,98731.97
2019-03-16T08:05:18.104Z,98749.05
2019-03-16T08:07:45.485Z,98735.44
2019-03-16T08:10:17.351Z,98752.69
2019-03-16T08:12:49.362Z,98749.87
2019-03-16T08:15:21.262Z,98761.33
2019-03-16T08:17:53.239Z,98762.41
2019-03-16T08:20:25.117Z,98776.97
2019-03-16T08:22:57.113Z,98786.67
2019-03-16T08:25:29.140Z,98794.12
2019-03-16T08:28:01.628Z,98796.62
2019-03-16T08:30:33.574Z,98802.34
2019-03-16T08:33:05.466Z,98802.00
2019-03-16T08:35:38.367Z,98825.56
2019-03-16T08:38:10.337Z,98823.17
2019-03-16T08:40:42.238Z,98820.46
2019-03-16T08:43:14.297Z,98836.06
2019-03-16T08:45:46.117Z,98841.92
2019-03-16T08:48:23.137Z,98862.16
2019-03-16T08:50:51.764Z,98853.45
2019-03-16T08:53:23.747Z,98855.50
2019-03-16T08:55:55.618Z,98859.82
2019-03-16T08:58:28.272Z,98869.87
2019-03-16T09:01:00.161Z,98878.61
2019-03-16T09:03:43.027Z,98878.41
2019-03-16T09:06:05.562Z,98884.30
2019-03-16T09:08:37.606Z,98884.20
2019-03-16T09:11:09.492Z,98884.68
2019-03-16T09:13:41.433Z,98889.93
2019-03-16T09:16:13.251Z,98900.02
2019-03-16T09:18:45.333Z,98895.77
2019-03-16T09:21:17.143Z,98911.61
2019-03-16T09:23:49.015Z,98909.83
2019-03-16T09:26:20.875Z,98920.11
2019-03-16T09:29:00.102Z,98920.49
2019-03-16T09:31:26.599Z,98917.98
2019-03-16T09:33:58.449Z,98937.95
2019-03-16T09:36:30.344Z,98937.23
2019-03-16T09:39:02.240Z,98944.61
2019-03-16T09:41:34.173Z,98940.45
2019-03-16T09:44:06.653Z,98950.27
2019-03-16T09:46:38.620Z,98946.63
2019-03-16T09:49:10.558Z,98960.07
2019-03-16T09:51:42.807Z,98974.52
2019-03-16T09:54:14.666Z,98977.88
2019-03-16T09:56:46.825Z,98981.27
2019-03-16T09:59:18.891Z,98979.38
2019-03-16T10:01:50.719Z,98987.64
2019-03-16T10:04:22.609Z,98991.50
2019-03-16T10:06:54.880Z,98999.13
2019-03-16T10:09:27.089Z,99013.59
2019-03-16T10:11:59.041Z,99010.67
2019-03-16T10:14:30.928Z,99023.23
2019-03-16T10:17:03.006Z,99029.76
2019-03-16T10:19:34.876Z,99030.17
2019-03-16T10:22:06.807Z,99034.84
2019-03-16T10:24:38.663Z,99034.29
2019-03-16T10:27:10.553Z,99032.59
2019-03-16T10:29:42.390Z,99038.10
2019-03-16T10:32:14.299Z,99036.11
2019-03-16T10:34:46.384Z,99043.53
2019-03-16T10:37:18.408Z,99040.63
2019-03-16T10:39:50.297Z,99053.45
2019-03-16T10:42:22.461Z,99074.50
2019-03-16T10:44:54.681Z,99064.95
2019-03-16T10:47:26.695Z,99076.41
2019-03-16T10:49:58.784Z,99083.66
2019-03-16T10:52:30.927Z,99079.26
2019-03-16T10:55:02.866Z,99085.98
2019-03-16T10:57:34.970Z,99091.82
2019-03-16T11:00:07.904Z,99094.90
2019-03-16T11:02:39.843Z,99091.89
2019-03-16T11:05:12.221Z,99098.88
2019-03-16T11:07:44.260Z,99099.66
2019-03-16T11:10:16.685Z,99104.18
2019-03-16T11:12:48.736Z,99114.82
2019-03-16T11:15:20.701Z,99097.14
2019-03-16T11:17:52.737Z,99113.28
2019-03-16T11:20:24.609Z,99114.08
2019-03-16T11:22:56.454Z,99107.55
2019-03-16T11:25:28.929Z,99121.25
2019-03-16T11:28:01.049Z,99113.56
2019-03-16T11:30:33.739Z,99128.66
2019-03-16T11:33:06.141Z,99128.16
2019-03-16T11:35:38.333Z,99129.80
2019-03-16T11:38:10.344Z,99132.13
2019-03-16T11:40:42.330Z,99145.40
2019-03-16T11:43:14.307Z,99141.64
2019-03-16T11:45:46.498Z,99143.75
2019-03-16T11:48:18.508Z,99147.70
2019-03-16T11:50:50.592Z,99152.01
2019-03-16T11:53:22.542Z,99150.48
2019-03-16T11:55:54.675Z,99152.51
2019-03-16T11:58:27.090Z,99154.23
2019-03-16T12:00:59.066Z,99163.56
2019-03-16T12:03:31.027Z,99162.22
2019-03-16T12:06:02.998Z,99168.95
2019-03-16T12:08:34.951Z,99178.17
2019-03-16T12:11:07.101Z,99183.16
2019-03-16T12:13:38.976Z,99191.40
2019-03-16T12:16:11.177Z,99193.14
2019-03-16T12:18:43.028Z,99204.06
2019-03-16T12:21:14.986Z,99208.92
2019-03-16T12:23:46.959Z,99208.48
2019-03-16T12:26:20.216Z,99206.20
2019-03-16T12:28:53.365Z,99209.03
2019-03-16T12:31:25.468Z,99216.64
2019-03-16T12:33:57.450Z,99200.73
2019-03-16T12:36:29.347Z,99220.48
2019-03-16T12:39:01.278Z,99224.61
2019-03-16T12:41:34.113Z,99219.84
2019-03-16T12:44:06.036Z,99230.59
2019-03-16T12:46:38.268Z,99226.11
2019-03-16T12:49:10.220Z,99219.89
2019-03-16T12:51:42.111Z,99223.83
2019-03-16T12:54:14.131Z,99219.03
2019-03-16T12:56:46.087Z,99226.67
2019-03-16T12:59:17.962Z,99228.02
2019-03-16T13:01:49.855Z,99233.25
2019-03-16T13:04:21.746Z,99234.73
2019-03-16T13:06:54.962Z,99251.03
2019-03-16T13:09:26.808Z,99245.70
2019-03-16T13:11:58.884Z,99246.87
2019-03-16T13:14:30.731Z,99242.44
2019-03-16T13:17:02.812Z,99237.68
2019-03-16T13:19:34.827Z,99242.55
2019-03-16T13:22:06.744Z,99249.34
2019-03-16T13:24:38.637Z,99250.53
2019-03-16T13:27:10.538Z,99270.54
2019-03-16T13:29:42.653Z,99260.72
2019-03-16T13:32:15.082Z,99265.90
2019-03-16T13:34:46.937Z,99272.70
2019-03-16T13:37:18.786Z,99264.83
2019-03-16T13:39:50.801Z,99273.74
2019-03-16T13:42:22.656Z,99272.84
2019-03-16T13:44:54.509Z,99279.77
2019-03-16T13:47:26.806Z,99287.09
2019-03-16T13:49:58.714Z,99283.17
2019-03-16T13:52:30.681Z,99291.70
2019-03-16T13:55:02.533Z,99298.31
2019-03-16T13:57:34.603Z,99309.38
2019-03-16T14:00:12.176Z,99302.88
2019-03-16T14:02:41.912Z,99304.58
2019-03-16T14:05:14.016Z,99300.80
2019-03-16T14:07:46.136Z,99305.59
2019-03-16T14:10:18.952Z,99301.73
2019-03-16T14:12:50.975Z,99311.41
2019-03-16T14:15:22.875Z,99312.43
2019-03-16T14:17:57.848Z,99310.05
2019-03-16T14:20:28.925Z,99315.06
2019-03-16T14:23:00.955Z,99314.48
2019-03-16T14:25:32.847Z,99317.77
2019-03-16T14:28:05.006Z,99333.88
2019-03-16T14:30:41.759Z,99334.16
2019-03-16T14:33:10.546Z,99347.08
2019-03-16T14:35:42.678Z,99345.84
2019-03-16T14:38:14.706Z,99342.06
2019-03-16T14:40:46.812Z,99347.62
2019-03-16T14:43:18.956Z,99351.63
2019-03-16T14:45:50.847Z,99353.48
2019-03-16T14:48:23.795Z,99355.47
2019-03-16T14:50:55.931Z,99354.10
2019-03-16T14:53:27.860Z,99351.36
2019-03-16T14:55:59.956Z,99354.30
2019-03-16T14:58:31.830Z,99364.36
2019-03-16T15:01:03.787Z,99376.24
2019-03-16T15:03:35.799Z,99375.37
2019-03-16T15:06:08.017Z,99383.50
2019-03-16T15:08:40.144Z,99379.06
2019-03-16T15:11:12.115Z,99385.21
2019-03-16T15:13:44.358Z,99387.51
2019-03-16T15:16:16.359Z,99390.15
2019-03-16T15:18:48.466Z,99390.92
2019-03-16T15:21:20.550Z,99386.30
2019-03-16T15:23:53.792Z,99382.75
2019-03-16T15:26:25.931Z,99385.59
2019-03-16T15:28:57.934Z,99397.16
2019-03-16T15:31:30.005Z,99404.72
2019-03-16T15:34:02.306Z,99403.69
2019-03-16T15:36:34.372Z,99409.20
2019-03-16T15:39:09.378Z,99419.63
2019-03-16T15:41:41.676Z,99419.56
2019-03-16T15:44:13.877Z,99423.92
2019-03-16T15:46:46.013Z,99430.67
2019-03-16T15:49:19.909Z,99430.10
2019-03-16T15:51:52.212Z,99433.66
2019-03-16T15:54:24.246Z,99438.31
2019-03-16T15:56:56.358Z,99435.07
2019-03-16T15:59:28.554Z,99444.12
2019-03-16T16:02:01.138Z,99443.59
2019-03-16T16:04:35.095Z,99440.84
2019-03-16T16:07:07.807Z,99433.86
2019-03-16T16:09:40.089Z,99446.25
2019-03-16T16:12:12.278Z,99447.81
2019-03-16T16:14:44.892Z,99443.70
2019-03-16T16:17:16.969Z,99453.67
2019-03-16T16:19:49.194Z,99452.31
2019-03-16T16:22:21.370Z,99449.34
2019-03-16T16:24:53.833Z,99462.09
2019-03-16T16:27:25.941Z,99460.69
2019-03-16T16:29:58.074Z,99454.16
2019-03-16T16:32:30.315Z,99459.69
2019-03-16T16:35:02.757Z,99460.27
2019-03-16T16:37:35.046Z,99464.96
2019-03-16T16:40:09.532Z,99465.30
2019-03-16T16:42:42.326Z,99466.55
2019-03-16T16:45:15.147Z,99471.59
2019-03-16T16:47:48.417Z,99467.05
2019-03-16T16:50:21.583Z,99472.18
2019-03-16T16:52:56.044Z,99473.97
2019-03-16T16:55:29.580Z,99477.51
2019-03-16T16:58:03.852Z,99477.51
2019-03-16T17:00:36.822Z,99484.58
2019-03-16T17:03:09.470Z,99486.81
2019-03-16T17:05:43.505Z,99483.84
2019-03-16T17:08:17.826Z,99480.47
2019-03-16T17:10:50.547Z,99487.39
2019-03-16T17:13:23.544Z,99494.70
2019-03-16T17:15:56.140Z,99498.22
2019-03-16T17:18:29.050Z,99498.57
2019-03-16T17:21:02.212Z,99503.65
2019-03-16T17:23:35.327Z,99512.22
2019-03-16T17:26:07.985Z,99511.69
2019-03-16T17:28:40.686Z,99504.04
2019-03-16T17:31:15.431Z,99514.78
2019-03-16T17:33:48.495Z,99511.45
2019-03-16T17:36:22.359Z,99515.84
2019-03-16T17:38:55.616Z,99516.38
2019-03-16T17:41:29.197Z,99517.84
2019-03-16T17:44:01.748Z,99520.97
2019-03-16T17:46:34.543Z,99526.67
2019-03-16T17:49:07.209Z,99523.64
2019-03-16T17:51:40.154Z,99519.66
2019-03-16T17:54:12.817Z,99520.82
2019-03-16T17:56:45.543Z,99514.16
2019-03-16T17:59:18.965Z,99520.73
2019-03-16T18:01:55.034Z,99515.53
2019-03-16T18:04:27.697Z,99512.86
2019-03-16T18:06:58.808Z,99514.08
2019-03-16T18:09:31.581Z,99511.88
2019-03-16T18:12:04.441Z,99508.50
2019-03-16T18:14:37.106Z,99508.53
2019-03-16T18:17:09.973Z,99511.33
2019-03-16T18:19:42.604Z,99518.14
2019-03-16T18:22:15.282Z,99514.06
2019-03-16T18:24:49.423Z,99517.14
2019-03-16T18:27:22.126Z,99524.91
2019-03-16T18:29:55.200Z,99525.47
2019-03-16T18:32:28.205Z,99533.77
2019-03-16T18:35:01.083Z,99531.92
2019-03-16T18:37:34.001Z,99533.59
2019-03-16T18:40:08.230Z,99532.69
2019-03-16T18:42:41.116Z,99539.39
2019-03-16T18:45:16.611Z,99537.44
2019-03-16T18:47:49.739Z,99542.66
2019-03-16T18:50:23.250Z,99545.54
2019-03-16T18:52:57.030Z,99550.20
2019-03-16T18:55:30.122Z,99553.19
2019-03-16T18:58:03.520Z,99550.59
2019-03-16T19:00:36.177Z,99554.30
2019-03-16T19:03:11.681Z,99560.81
2019-03-16T19:05:43.506Z,99556.55
2019-03-16T19:08:16.727Z,99556.55
2019-03-16T19:10:49.648Z,99553.73
2019-03-16T19:13:22.773Z,99553.08
2019-03-16T19:15:55.695Z,99549.91
2019-03-16T19:18:28.570Z,99551.53
2019-03-16T19:21:01.513Z,99555.27
2019-03-16T19:23:34.820Z,99554.05
2019-03-16T19:26:07.921Z,99553.48
2019-03-16T19:28:40.984Z,99552.36
2019-03-16T19:31:13.763Z,99550.48
2019-03-16T19:33:46.497Z,99548.16
2019-03-16T19:36:19.338Z,99549.08
2019-03-16T19:38:52.372Z,99549.17
2019-03-16T19:41:25.107Z,99548.12
2019-03-16T19:43:58.554Z,99548.02
2019-03-16T19:46:30.954Z,99547.64
2019-03-16T19:49:03.491Z,99550.06
2019-03-16T19:51:36.385Z,99554.52
2019-03-16T19:54:21.040Z,99554.59
2019-03-16T19:56:54.036Z,99554.02
2019-03-16T19:59:26.907Z,99547.20
2019-03-16T20:01:59.904Z,99547.28
2019-03-16T20:04:36.286Z,99544.02
2019-03-16T20:07:18.776Z,99542.88
2019-03-16T20:09:42.091Z,99539.26
2019-03-16T20:12:16.338Z,99541.94
2019-03-16T20:14:49.655Z,99542.50
2019-03-16T20:17:23.370Z,99531.30
2019-03-16T20:19:56.728Z,99534.47
2019-03-16T20:22:29.610Z,99536.80
2019-03-16T20:25:03.135Z,99534.27
2019-03-16T20:27:36.146Z,99536.66
2019-03-16T20:30:10.291Z,99537.21
2019-03-16T20:32:43.256Z,99532.36
2019-03-16T20:35:16.048Z,99534.73
2019-03-16T20:37:48.962Z,99534.63
2019-03-16T20:40:23.258Z,99533.48
2019-03-16T20:42:56.088Z,99531.91
2019-03-16T20:45:29.124Z,99530.85
2019-03-16T20:48:02.256Z,99521.23
2019-03-16T20:50:35.323Z,99526.83
2019-03-16T20:53:08.262Z,99521.31
2019-03-16T20:55:41.940Z,99530.34
2019-03-16T20:58:15.162Z,99533.86
2019-03-16T21:00:48.526Z,99536.27
2019-03-16T21:03:21.237Z,99535.79
2019-03-16T21:05:54.594Z,99537.64
2019-03-16T21:08:27.561Z,99546.98
2019-03-16T21:11:00.744Z,99543.48
2019-03-16T21:13:33.558Z,99549.05
2019-03-16T21:16:06.489Z,99556.49
2019-03-16T21:18:39.377Z,99558.78
2019-03-16T21:21:12.712Z,99564.69
2019-03-16T21:23:45.684Z,99569.61
2019-03-16T21:26:19.011Z,99569.69
2019-03-16T21:28:51.725Z,99569.22
2019-03-16T21:31:24.541Z,99565.66
2019-03-16T21:33:57.292Z,99567.48
2019-03-16T21:36:41.021Z,99567.97
2019-03-16T21:39:05.975Z,99578.22
2019-03-16T21:41:39.187Z,99583.34
2019-03-16T21:44:12.084Z,99583.34
2019-03-16T21:46:44.842Z,99582.05
2019-03-16T21:49:17.725Z,99583.58
2019-03-16T21:51:50.674Z,99577.35
2019-03-16T21:54:23.218Z,99584.41
2019-03-16T21:56:56.931Z,99591.38
2019-03-16T21:59:29.658Z,99593.20
2019-03-16T22:02:02.672Z,99596.36
2019-03-16T22:04:35.125Z,99597.34
2019-03-16T22:07:08.209Z,99595.02
2019-03-16T22:09:40.622Z,99593.33
2019-03-16T22:12:13.259Z,99596.39
2019-03-16T22:14:45.627Z,99593.99
2019-03-16T22:17:17.726Z,99595.89
2019-03-16T22:19:49.685Z,99599.99
2019-03-16T22:22:21.795Z,99599.55
2019-03-16T22:24:53.711Z,99596.75
2019-03-16T22:27:25.909Z,99598.28
2019-03-16T22:29:57.922Z,99590.48
2019-03-16T22:32:29.961Z,99593.55
2019-03-16T22:35:02.162Z,99594.89
2019-03-16T22:37:34.206Z,99588.58
2019-03-16T22:40:06.912Z,99586.05
2019-03-16T22:42:39.178Z,99580.84
2019-03-16T22:45:12.131Z,99582.45
2019-03-16T22:47:45.316Z,99580.20
2019-03-16T22:50:18.225Z,99572.31
2019-03-16T22:52:50.458Z,99582.29
2019-03-16T22:55:23.941Z,99579.05
2019-03-16T22:57:56.409Z,99578.27
2019-03-16T23:00:39.036Z,99583.95
2019-03-16T23:03:11.800Z,99578.91
2019-03-16T23:05:44.294Z,99591.66
2019-03-16T23:08:16.525Z,99590.91
2019-03-16T23:10:48.575Z,99584.05
2019-03-16T23:13:20.787Z,99578.17
2019-03-16T23:15:53.208Z,99578.17
2019-03-16T23:18:25.470Z,99578.33
2019-03-16T23:20:57.563Z,99582.67
2019-03-16T23:23:29.641Z,99573.44
2019-03-16T23:26:01.592Z,99575.69
2019-03-16T23:28:34.075Z,99567.28
2019-03-16T23:31:06.825Z,99573.20
2019-03-16T23:33:38.915Z,99563.08
2019-03-16T23:36:10.945Z,99567.38
2019-03-16T23:38:42.893Z,99575.44
2019-03-16T23:41:15.198Z,99563.55
2019-03-16T23:43:47.144Z,99565.44
2019-03-16T23:46:19.075Z,99567.41
2019-03-16T23:48:51.002Z,99566.22
2019-03-16T23:51:22.999Z,99560.95
2019-03-16T23:53:54.870Z,99559.31
2019-03-16T23:56:26.991Z,99556.73
2019-03-16T23:58:59.124Z,99554.22
